createdAt,value
2023-03-26T00:03:56.949Z,2.95
2023-03-26T00:09:00.670Z,3.10
2023-03-26T00:14:04.350Z,3.30
2023-03-26T00:19:09.790Z,3.58
2023-03-26T00:24:15.830Z,2.92
2023-03-26T00:29:19.444Z,3.20
2023-03-26T00:34:24.786Z,3.53
2023-03-26T00:39:28.670Z,3.20
2023-03-26T00:44:32.414Z,3.38
2023-03-26T00:49:37.776Z,3.65
2023-03-26T00:54:41.543Z,5.80
2023-03-26T00:59:45.209Z,3.60
2023-03-26T01:04:55.966Z,3.70
2023-03-26T01:10:00.814Z,3.80
2023-03-26T01:15:05.342Z,3.80
2023-03-26T01:20:16.508Z,3.80
2023-03-26T01:25:25.993Z,4.38
2023-03-26T01:30:39.637Z,3.45
2023-03-26T01:35:52.543Z,3.83
2023-03-26T01:41:05.074Z,4.10
2023-03-26T01:46:11.746Z,4.93
2023-03-26T01:51:26.255Z,5.00
2023-03-26T01:56:40.261Z,4.40
2023-03-26T02:01:49.130Z,4.93
2023-03-26T02:06:58.630Z,5.25
2023-03-26T02:12:05.658Z,9.43
2023-03-26T02:17:09.515Z,5.88
2023-03-26T02:22:13.806Z,6.28
2023-03-26T02:27:19.080Z,4.40
2023-03-26T02:32:23.632Z,4.40
2023-03-26T02:37:27.309Z,4.43
2023-03-26T02:42:32.618Z,4.80
2023-03-26T02:47:36.360Z,4.73
2023-03-26T02:52:40.086Z,4.40
2023-03-26T02:57:46.360Z,4.50
2023-03-26T03:07:53.063Z,4.28
2023-03-26T03:12:58.370Z,4.32
2023-03-26T03:18:02.114Z,4.30
2023-03-26T03:23:05.818Z,4.68
2023-03-26T03:28:11.381Z,5.72
2023-03-26T03:33:15.016Z,4.23
2023-03-26T03:38:19.439Z,4.72
2023-03-26T03:43:24.896Z,4.82
2023-03-26T03:48:28.874Z,5.87
2023-03-26T03:53:32.643Z,3.95
2023-03-26T03:58:38.039Z,3.80
2023-03-26T04:03:41.912Z,4.20
2023-03-26T04:08:45.814Z,3.85
2023-03-26T04:13:51.097Z,4.00
2023-03-26T04:18:54.761Z,4.47
2023-03-26T04:23:58.421Z,4.70
2023-03-26T04:29:06.774Z,5.00
2023-03-26T04:34:14.802Z,4.00
2023-03-26T04:39:18.732Z,5.22
2023-03-26T04:44:25.398Z,4.07
2023-03-26T04:49:29.020Z,4.65
2023-03-26T04:54:32.676Z,3.67
2023-03-26T04:59:37.996Z,3.55
2023-03-26T05:04:41.852Z,4.20
2023-03-26T05:09:45.681Z,3.50
2023-03-26T05:14:50.987Z,4.30
2023-03-26T05:19:54.801Z,3.40
2023-03-26T05:24:58.413Z,4.00
2023-03-26T05:30:05.508Z,4.38
2023-03-26T05:35:09.828Z,4.35
2023-03-26T05:40:14.147Z,4.53
2023-03-26T05:45:19.573Z,3.58
2023-03-26T05:50:23.838Z,3.43
2023-03-26T05:55:27.480Z,3.63
2023-03-26T06:00:32.754Z,3.50
2023-03-26T06:05:36.671Z,4.57
2023-03-26T06:10:40.402Z,3.42
2023-03-26T06:15:45.842Z,3.42
2023-03-26T06:20:49.667Z,3.93
2023-03-26T06:25:53.328Z,3.10
2023-03-26T06:31:01.260Z,3.33
2023-03-26T06:36:05.460Z,5.65
2023-03-26T06:41:09.373Z,3.20
2023-03-26T06:46:14.719Z,3.30
2023-03-26T06:51:18.621Z,2.67
2023-03-26T06:56:22.402Z,3.30
2023-03-26T07:01:27.740Z,3.50
2023-03-26T07:06:31.407Z,3.35
2023-03-26T07:11:35.769Z,3.58
2023-03-26T07:16:41.136Z,3.85
2023-03-26T07:21:45.319Z,3.20
2023-03-26T07:26:57.336Z,3.53
2023-03-26T07:32:10.228Z,3.00
2023-03-26T07:37:24.315Z,3.55
2023-03-26T07:42:46.761Z,3.20
2023-03-26T07:47:52.606Z,3.58
2023-03-26T07:52:56.770Z,3.10
2023-03-26T07:58:14.822Z,5.05
2023-03-26T08:03:46.786Z,3.10
2023-03-26T08:08:54.777Z,3.10
2023-03-26T08:14:09.414Z,2.88
2023-03-26T08:19:34.982Z,3.33
2023-03-26T08:24:44.672Z,2.90
2023-03-26T08:29:55.427Z,2.53
2023-03-26T08:35:00.866Z,2.75
2023-03-26T08:40:04.655Z,2.63
2023-03-26T08:45:39.553Z,2.50
2023-03-26T08:51:22.699Z,2.13
2023-03-26T08:56:30.342Z,2.83
2023-03-26T09:02:06.452Z,2.58
2023-03-26T09:07:34.375Z,2.20
2023-03-26T09:13:17.745Z,2.38
2023-03-26T09:18:49.630Z,2.40
2023-03-26T09:24:21.629Z,2.17
2023-03-26T09:30:05.917Z,2.50
2023-03-26T09:35:18.142Z,2.17
2023-03-26T09:40:35.543Z,2.00
2023-03-26T09:51:47.076Z,1.98
2023-03-26T09:56:59.370Z,2.20
2023-03-26T10:02:46.314Z,2.13
2023-03-26T10:08:07.425Z,1.92
2023-03-26T10:13:24.475Z,1.70
2023-03-26T10:18:38.342Z,1.95
2023-03-26T10:24:02.449Z,2.20
2023-03-26T10:29:30.358Z,1.90
2023-03-26T10:34:50.414Z,2.10
2023-03-26T10:40:16.922Z,2.10
2023-03-26T10:45:39.681Z,2.05
2023-03-26T10:51:07.914Z,2.13
2023-03-26T10:56:22.833Z,2.20
2023-03-26T11:01:41.189Z,1.83
2023-03-26T11:06:52.112Z,1.90
2023-03-26T11:12:02.518Z,2.13
2023-03-26T11:17:41.445Z,2.17
2023-03-26T11:22:59.548Z,2.03
2023-03-26T11:28:16.340Z,1.60
2023-03-26T11:33:25.329Z,1.90
2023-03-26T11:38:35.073Z,1.67
2023-03-26T11:43:38.733Z,1.75
2023-03-26T11:48:47.672Z,1.80
2023-03-26T11:53:51.432Z,1.80
2023-03-26T11:59:02.308Z,1.70
2023-03-26T12:04:12.267Z,1.67
2023-03-26T12:09:19.396Z,2.03
2023-03-26T12:14:25.424Z,1.90
2023-03-26T12:19:37.697Z,1.70
2023-03-26T12:24:41.317Z,1.70
2023-03-26T12:29:44.968Z,1.70
2023-03-26T12:34:51.327Z,1.63
2023-03-26T12:45:15.793Z,1.70
2023-03-26T12:50:34.258Z,1.40
2023-03-26T12:55:43.943Z,1.60
2023-03-26T13:00:57.309Z,1.73
2023-03-26T13:06:24.710Z,1.50
2023-03-26T13:11:35.352Z,1.25
2023-03-26T13:16:47.194Z,5.78
2023-03-26T13:22:05.161Z,1.85
2023-03-26T13:27:31.776Z,3.55
2023-03-26T13:32:46.960Z,1.55
2023-03-26T13:37:59.451Z,1.50
2023-03-26T13:43:23.191Z,1.65
2023-03-26T13:48:31.055Z,1.50
2023-03-26T13:53:47.976Z,1.38
2023-03-26T13:58:56.994Z,1.20
2023-03-26T14:04:08.788Z,1.58
2023-03-26T14:09:19.764Z,1.60
2023-03-26T14:14:33.362Z,1.92
2023-03-26T14:20:11.145Z,2.10
2023-03-26T14:25:40.321Z,1.90
2023-03-26T14:30:55.144Z,1.52
2023-03-26T14:36:05.374Z,1.40
2023-03-26T14:41:23.985Z,1.23
2023-03-26T14:46:47.007Z,1.30
2023-03-26T14:52:02.228Z,1.48
2023-03-26T14:57:42.790Z,1.40
2023-03-26T15:03:17.982Z,1.27
2023-03-26T15:09:07.320Z,1.30
2023-03-26T15:14:42.475Z,1.35
2023-03-26T15:20:32.508Z,1.20
2023-03-26T15:26:12.975Z,1.33
2023-03-26T15:31:54.283Z,1.15
2023-03-26T15:37:36.315Z,1.23
2023-03-26T15:42:54.062Z,1.02
2023-03-26T15:48:32.266Z,1.35
2023-03-26T15:53:44.442Z,1.23
2023-03-26T15:58:56.321Z,1.10
2023-03-26T16:04:13.916Z,1.23
2023-03-26T16:09:49.225Z,1.17
2023-03-26T16:15:24.256Z,1.10
2023-03-26T16:20:33.687Z,1.17
2023-03-26T16:25:55.170Z,1.45
2023-03-26T16:31:37.280Z,1.20
2023-03-26T16:36:46.897Z,1.38
2023-03-26T16:42:06.153Z,1.95
2023-03-26T16:47:20.519Z,1.90
2023-03-26T16:52:36.277Z,1.77
2023-03-26T16:57:48.749Z,1.75
2023-03-26T17:02:58.201Z,1.73
2023-03-26T17:08:13.694Z,1.70
2023-03-26T17:13:23.694Z,2.20
2023-03-26T17:18:36.497Z,1.73
2023-03-26T17:24:02.535Z,1.88
2023-03-26T17:29:23.229Z,1.73
2023-03-26T17:34:59.853Z,1.52
2023-03-26T17:40:51.486Z,1.60
2023-03-26T17:46:03.385Z,1.77
2023-03-26T17:51:29.041Z,2.00
2023-03-26T17:56:36.796Z,1.73
2023-03-26T18:01:42.956Z,1.60
2023-03-26T18:06:57.173Z,1.38
2023-03-26T18:12:39.285Z,1.42
2023-03-26T18:18:07.242Z,1.60
2023-03-26T18:23:17.899Z,1.58
2023-03-26T18:28:32.060Z,1.88
2023-03-26T18:33:43.244Z,1.70
2023-03-26T18:38:47.182Z,1.58
2023-03-26T18:43:52.591Z,1.65
2023-03-26T18:48:56.395Z,2.00
2023-03-26T18:54:03.907Z,1.50
2023-03-26T18:59:25.684Z,1.67
2023-03-26T19:04:31.261Z,1.65
2023-03-26T19:09:35.417Z,1.75
2023-03-26T19:14:55.995Z,1.63
2023-03-26T19:19:59.714Z,1.60
2023-03-26T19:25:06.507Z,1.58
2023-03-26T19:30:25.780Z,1.70
2023-03-26T19:35:36.798Z,1.50
2023-03-26T19:40:43.580Z,1.60
2023-03-26T19:46:04.953Z,1.75
2023-03-26T19:51:21.133Z,1.67
2023-03-26T20:01:31.129Z,1.70
2023-03-26T20:06:43.309Z,1.58
2023-03-26T20:11:47.619Z,1.58
2023-03-26T20:16:53.201Z,1.73
2023-03-26T20:21:57.256Z,1.45
2023-03-26T20:27:00.900Z,1.42
2023-03-26T20:32:07.738Z,1.65
2023-03-26T20:37:11.422Z,1.48
2023-03-26T20:42:17.659Z,1.75
2023-03-26T20:47:23.957Z,1.60
2023-03-26T20:52:27.674Z,1.75
2023-03-26T20:57:31.307Z,1.30
2023-03-26T21:02:36.699Z,1.77
2023-03-26T21:07:40.809Z,1.80
2023-03-26T21:12:49.660Z,1.40
2023-03-26T21:17:55.873Z,1.98
2023-03-26T21:23:08.640Z,1.83
2023-03-26T21:28:32.009Z,1.38
2023-03-26T21:33:45.455Z,1.48
2023-03-26T21:38:49.624Z,1.42
2023-03-26T21:43:53.319Z,1.60
2023-03-26T21:48:59.206Z,1.80
2023-03-26T21:59:18.791Z,2.05
2023-03-26T22:04:34.182Z,1.60
2023-03-26T22:09:38.369Z,1.77
2023-03-26T22:14:42.086Z,1.90
2023-03-26T22:19:47.403Z,1.70
2023-03-26T22:24:51.005Z,1.57
2023-03-26T22:29:54.647Z,1.67
2023-03-26T22:34:59.969Z,1.85
2023-03-26T22:40:03.738Z,1.90
2023-03-26T22:45:08.776Z,1.80
2023-03-26T22:50:14.216Z,1.63
2023-03-26T22:55:29.081Z,2.13
2023-03-26T23:00:33.610Z,1.77
2023-03-26T23:05:39.168Z,1.85
2023-03-26T23:10:43.284Z,1.63
2023-03-26T23:15:48.744Z,1.70
2023-03-26T23:20:55.143Z,1.70
2023-03-26T23:25:59.985Z,1.60
2023-03-26T23:31:05.470Z,1.73
2023-03-26T23:36:11.536Z,2.00
2023-03-26T23:41:15.710Z,1.60
2023-03-26T23:46:19.402Z,1.67
2023-03-26T23:51:24.701Z,1.80
2023-03-26T23:56:28.365Z,1.35
